createdAt,value
2023-04-23T00:01:41.880Z,6.23
2023-04-23T00:04:12.279Z,6.18
2023-04-23T00:06:42.131Z,6.17
2023-04-23T00:09:12.294Z,6.25
2023-04-23T00:11:41.050Z,6.31
2023-04-23T00:14:09.373Z,6.32
2023-04-23T00:16:39.858Z,6.29
2023-04-23T00:19:09.024Z,6.26
2023-04-23T00:21:36.923Z,6.16
2023-04-23T00:24:07.054Z,6.13
2023-04-23T00:26:35.229Z,6.07
2023-04-23T00:29:03.137Z,5.99
2023-04-23T00:31:31.175Z,5.95
2023-04-23T00:33:59.418Z,5.87
2023-04-23T00:36:27.268Z,5.83
2023-04-23T00:38:55.529Z,5.78
2023-04-23T00:41:24.907Z,5.68
2023-04-23T00:43:57.455Z,5.61
2023-04-23T00:46:26.968Z,5.58
2023-04-23T00:48:55.368Z,5.47
2023-04-23T00:51:24.634Z,5.39
2023-04-23T00:53:52.978Z,5.38
2023-04-23T00:56:22.119Z,5.30
2023-04-23T00:58:51.909Z,5.28
2023-04-23T01:01:21.885Z,5.30
2023-04-23T01:03:52.826Z,5.29
2023-04-23T01:06:21.792Z,5.27
2023-04-23T01:08:49.991Z,5.16
2023-04-23T01:11:17.971Z,4.97
2023-04-23T01:13:46.028Z,4.95
2023-04-23T01:16:14.111Z,4.89
2023-04-23T01:18:42.546Z,4.86
2023-04-23T01:21:12.358Z,4.93
2023-04-23T01:23:41.017Z,5.01
2023-04-23T01:26:10.841Z,5.12
2023-04-23T01:28:39.558Z,5.30
2023-04-23T01:31:07.862Z,5.25
2023-04-23T01:33:36.598Z,5.21
2023-04-23T01:36:05.193Z,5.14
2023-04-23T01:38:34.579Z,5.09
2023-04-23T01:41:02.532Z,5.12
2023-04-23T01:43:32.436Z,5.12
2023-04-23T01:46:00.892Z,5.14
2023-04-23T01:48:30.383Z,5.08
2023-04-23T01:50:58.732Z,5.08
2023-04-23T01:53:26.753Z,5.00
2023-04-23T01:55:56.796Z,4.97
2023-04-23T01:58:25.179Z,5.00
2023-04-23T02:00:55.000Z,4.96
2023-04-23T02:03:23.653Z,5.00
2023-04-23T02:05:55.761Z,4.96
2023-04-23T02:08:24.077Z,4.83
2023-04-23T02:10:52.894Z,4.75
2023-04-23T02:13:21.030Z,4.73
2023-04-23T02:15:49.250Z,4.69
2023-04-23T02:18:17.205Z,4.72
2023-04-23T02:20:45.193Z,4.77
2023-04-23T02:23:13.312Z,4.76
2023-04-23T02:25:42.669Z,4.75
2023-04-23T02:28:13.480Z,4.73
2023-04-23T02:30:46.132Z,4.68
2023-04-23T02:33:14.396Z,4.64
2023-04-23T02:35:42.398Z,4.60
2023-04-23T02:38:10.885Z,4.56
2023-04-23T02:40:38.964Z,4.58
2023-04-23T02:43:07.279Z,4.56
2023-04-23T02:45:35.377Z,4.55
2023-04-23T02:48:04.392Z,4.51
2023-04-23T02:50:32.380Z,4.44
2023-04-23T02:53:00.607Z,4.39
2023-04-23T02:55:32.205Z,4.36
2023-04-23T02:58:00.732Z,4.34
2023-04-23T03:00:29.396Z,4.32
2023-04-23T03:02:57.714Z,4.35
2023-04-23T03:05:26.162Z,4.26
2023-04-23T03:07:54.017Z,4.25
2023-04-23T03:10:22.363Z,4.13
2023-04-23T03:12:50.293Z,4.18
2023-04-23T03:15:18.649Z,4.16
2023-04-23T03:17:46.808Z,4.12
2023-04-23T03:20:16.818Z,4.13
2023-04-23T03:22:44.900Z,4.16
2023-04-23T03:25:13.721Z,4.17
2023-04-23T03:27:42.495Z,4.09
2023-04-23T03:30:11.752Z,4.02
2023-04-23T03:32:40.195Z,4.03
2023-04-23T03:35:09.741Z,3.99
2023-04-23T03:37:40.558Z,3.96
2023-04-23T03:40:10.210Z,3.88
2023-04-23T03:42:41.089Z,3.89
2023-04-23T03:45:11.619Z,3.90
2023-04-23T03:47:40.649Z,3.91
2023-04-23T03:50:10.073Z,3.92
2023-04-23T03:52:39.306Z,3.98
2023-04-23T03:55:12.292Z,4.09
2023-04-23T03:57:45.001Z,4.17
2023-04-23T04:00:25.273Z,4.21
2023-04-23T04:02:53.508Z,4.27
2023-04-23T04:05:24.042Z,4.37
2023-04-23T04:07:55.291Z,4.44
2023-04-23T04:10:23.276Z,4.53
2023-04-23T04:12:51.252Z,4.59
2023-04-23T04:15:21.159Z,4.69
2023-04-23T04:17:49.099Z,4.77
2023-04-23T04:20:17.026Z,4.89
2023-04-23T04:22:45.395Z,4.94
2023-04-23T04:25:13.322Z,5.02
2023-04-23T04:27:41.732Z,5.12
2023-04-23T04:30:10.598Z,5.25
2023-04-23T04:32:38.985Z,5.35
2023-04-23T04:35:09.180Z,5.43
2023-04-23T04:37:37.463Z,5.59
2023-04-23T04:40:07.750Z,5.90
2023-04-23T04:42:36.503Z,6.46
2023-04-23T04:45:06.236Z,7.20
2023-04-23T04:47:34.725Z,7.91
2023-04-23T04:50:03.844Z,8.32
2023-04-23T04:52:32.325Z,8.67
2023-04-23T04:55:00.458Z,9.00
2023-04-23T04:57:28.366Z,9.38
2023-04-23T04:59:57.753Z,9.75
2023-04-23T05:02:26.748Z,10.03
2023-04-23T05:04:54.776Z,10.20
2023-04-23T05:07:22.919Z,10.33
2023-04-23T05:09:51.001Z,10.61
2023-04-23T05:12:19.040Z,10.96
2023-04-23T05:14:47.150Z,10.77
2023-04-23T05:17:15.103Z,10.99
2023-04-23T05:19:42.980Z,11.05
2023-04-23T05:22:11.616Z,10.93
2023-04-23T05:24:39.835Z,10.87
2023-04-23T05:27:07.886Z,11.09
2023-04-23T05:29:36.507Z,11.32
2023-04-23T05:32:04.765Z,11.26
2023-04-23T05:34:33.079Z,11.65
2023-04-23T05:37:02.320Z,11.56
2023-04-23T05:39:30.774Z,11.67
2023-04-23T05:41:58.670Z,12.10
2023-04-23T05:44:26.835Z,12.41
2023-04-23T05:46:56.428Z,12.61
2023-04-23T05:49:24.375Z,12.79
2023-04-23T05:51:52.548Z,12.86
2023-04-23T05:54:20.768Z,13.30
2023-04-23T05:56:48.714Z,13.64
2023-04-23T05:59:16.842Z,13.85
2023-04-23T06:01:47.704Z,14.13
2023-04-23T06:04:17.363Z,14.17
2023-04-23T06:06:45.565Z,14.06
2023-04-23T06:09:13.697Z,14.27
2023-04-23T06:11:41.971Z,14.23
2023-04-23T06:14:10.685Z,14.24
2023-04-23T06:16:39.109Z,14.22
2023-04-23T06:19:07.639Z,14.42
2023-04-23T06:21:35.961Z,14.22
2023-04-23T06:24:04.357Z,14.14
2023-04-23T06:26:33.315Z,14.53
2023-04-23T06:29:06.665Z,14.51
2023-04-23T06:31:39.916Z,14.64
2023-04-23T06:34:08.193Z,14.98
2023-04-23T06:36:36.131Z,14.86
2023-04-23T06:39:05.404Z,15.07
2023-04-23T06:41:34.184Z,14.91
2023-04-23T06:44:13.918Z,15.17
2023-04-23T06:46:49.251Z,15.37
2023-04-23T06:49:17.511Z,15.38
2023-04-23T06:51:45.424Z,15.60
2023-04-23T06:54:13.534Z,15.68
2023-04-23T06:56:41.643Z,16.12
2023-04-23T06:59:11.291Z,16.37
2023-04-23T07:01:49.047Z,16.64
2023-04-23T07:04:17.474Z,16.43
2023-04-23T07:06:45.642Z,16.62
2023-04-23T07:09:13.632Z,16.74
2023-04-23T07:11:41.640Z,16.64
2023-04-23T07:14:09.710Z,16.62
2023-04-23T07:16:38.557Z,16.80
2023-04-23T07:19:06.489Z,16.72
2023-04-23T07:21:34.362Z,16.88
2023-04-23T07:24:07.495Z,17.13
2023-04-23T07:26:36.514Z,17.20
2023-04-23T07:29:07.873Z,17.42
2023-04-23T07:31:37.383Z,17.41
2023-04-23T07:34:06.009Z,17.54
2023-04-23T07:36:34.226Z,17.98
2023-04-23T07:39:02.747Z,17.60
2023-04-23T07:41:30.946Z,17.67
2023-04-23T07:43:58.810Z,18.14
2023-04-23T07:46:28.021Z,18.05
2023-04-23T07:48:56.783Z,18.24
2023-04-23T07:51:26.940Z,18.11
2023-04-23T07:53:56.564Z,18.50
2023-04-23T07:56:24.866Z,18.78
2023-04-23T07:58:54.253Z,18.63
2023-04-23T08:01:22.663Z,18.79
2023-04-23T08:03:50.851Z,18.69
2023-04-23T08:06:18.910Z,18.71
2023-04-23T08:08:47.535Z,18.95
2023-04-23T08:11:15.660Z,19.45
2023-04-23T08:13:43.659Z,19.32
2023-04-23T08:16:11.874Z,19.03
2023-04-23T08:18:39.884Z,18.83
2023-04-23T08:21:08.136Z,18.78
2023-04-23T08:23:36.127Z,19.03
2023-04-23T08:26:04.345Z,19.43
2023-04-23T08:28:32.223Z,19.32
2023-04-23T08:31:02.723Z,19.20
2023-04-23T08:33:33.432Z,18.93
2023-04-23T08:36:01.505Z,19.33
2023-04-23T08:38:29.598Z,19.54
2023-04-23T08:40:59.846Z,19.19
2023-04-23T08:44:32.952Z,19.16
2023-04-23T08:47:03.799Z,19.27
2023-04-23T08:49:35.856Z,19.51
2023-04-23T08:52:19.328Z,19.46
2023-04-23T08:54:52.805Z,19.79
2023-04-23T08:57:20.911Z,19.59
2023-04-23T08:59:49.023Z,19.89
2023-04-23T09:02:18.122Z,20.03
2023-04-23T09:04:47.942Z,19.69
2023-04-23T09:07:19.160Z,19.75
2023-04-23T09:09:47.712Z,19.80
2023-04-23T09:12:15.640Z,19.79
2023-04-23T09:14:44.251Z,20.01
2023-04-23T09:17:12.569Z,20.21
2023-04-23T09:19:41.263Z,20.05
2023-04-23T09:22:10.369Z,20.24
2023-04-23T09:24:41.829Z,20.60
2023-04-23T09:27:10.254Z,20.44
2023-04-23T09:29:38.502Z,20.62
2023-04-23T09:32:10.543Z,20.71
2023-04-23T09:34:38.826Z,20.68
2023-04-23T09:37:11.550Z,20.75
2023-04-23T09:39:40.318Z,20.66
2023-04-23T09:42:11.299Z,20.60
2023-04-23T09:44:39.548Z,20.63
2023-04-23T09:47:14.918Z,21.01
2023-04-23T09:49:49.141Z,20.99
2023-04-23T09:52:18.505Z,21.11
2023-04-23T09:54:46.924Z,21.41
2023-04-23T09:57:16.258Z,21.14
2023-04-23T09:59:47.655Z,21.31
2023-04-23T10:02:19.155Z,21.34
2023-04-23T10:05:00.672Z,21.42
2023-04-23T10:07:35.542Z,21.15
2023-04-23T10:10:04.296Z,21.31
2023-04-23T10:15:30.121Z,20.99
2023-04-23T10:17:59.451Z,21.25
2023-04-23T10:20:27.462Z,21.71
2023-04-23T10:23:01.276Z,21.79
2023-04-23T10:28:34.131Z,22.22
2023-04-23T10:31:04.199Z,21.92
2023-04-23T10:33:39.792Z,22.42
2023-04-23T10:36:15.080Z,22.31
2023-04-23T10:38:54.879Z,22.06
2023-04-23T10:41:35.985Z,22.25
2023-04-23T10:44:06.886Z,22.43
2023-04-23T10:46:37.953Z,22.28
2023-04-23T10:49:16.679Z,22.70
2023-04-23T10:54:20.690Z,22.16
2023-04-23T10:57:06.060Z,22.66
2023-04-23T10:59:39.930Z,22.51
2023-04-23T11:02:13.371Z,23.09
2023-04-23T11:04:58.604Z,22.87
2023-04-23T11:07:33.219Z,22.28
2023-04-23T11:10:15.375Z,22.69
2023-04-23T11:12:45.061Z,22.38
2023-04-23T11:15:15.114Z,22.22
2023-04-23T11:17:47.978Z,22.26
2023-04-23T11:20:24.137Z,22.13
2023-04-23T11:22:53.344Z,22.63
2023-04-23T11:25:27.822Z,23.13
2023-04-23T11:28:00.410Z,23.33
2023-04-23T11:30:30.761Z,23.55
2023-04-23T11:33:01.780Z,23.59
2023-04-23T11:35:39.143Z,23.71
2023-04-23T11:38:10.410Z,23.45
2023-04-23T11:40:40.531Z,22.91
2023-04-23T11:43:08.896Z,22.62
2023-04-23T11:45:37.434Z,22.80
2023-04-23T11:48:07.110Z,22.89
2023-04-23T11:50:37.478Z,23.39
2023-04-23T11:53:11.493Z,22.74
2023-04-23T11:55:44.157Z,23.21
2023-04-23T11:58:12.662Z,22.67
2023-04-23T12:00:41.434Z,23.39
2023-04-23T12:03:10.532Z,23.06
2023-04-23T12:05:44.974Z,23.40
2023-04-23T12:08:17.426Z,22.86
2023-04-23T12:11:01.591Z,23.40
2023-04-23T12:13:33.816Z,23.73
2023-04-23T12:16:05.398Z,23.99
2023-04-23T12:18:42.691Z,24.41
2023-04-23T12:21:14.613Z,24.64
2023-04-23T12:23:45.207Z,24.59
2023-04-23T12:26:16.080Z,24.74
2023-04-23T12:28:56.745Z,24.66
2023-04-23T12:31:31.340Z,24.42
2023-04-23T12:34:07.902Z,24.90
2023-04-23T12:36:38.743Z,24.80
2023-04-23T12:39:31.931Z,24.70
2023-04-23T12:42:10.590Z,24.46
2023-04-23T12:44:39.386Z,24.68
2023-04-23T12:47:11.507Z,24.33
2023-04-23T12:49:42.260Z,24.05
2023-04-23T12:52:12.830Z,24.74
2023-04-23T12:54:41.938Z,24.71
2023-04-23T12:57:13.116Z,25.28
2023-04-23T12:59:41.455Z,25.70
2023-04-23T13:02:10.174Z,24.97
2023-04-23T13:04:38.700Z,24.98
2023-04-23T13:07:06.696Z,24.94
2023-04-23T13:09:37.120Z,24.98
2023-04-23T13:12:05.379Z,24.42
2023-04-23T13:14:33.964Z,24.79
2023-04-23T13:17:03.150Z,24.49
2023-04-23T13:19:33.742Z,24.91
2023-04-23T13:22:05.352Z,24.60
2023-04-23T13:24:33.799Z,24.68
2023-04-23T13:27:02.680Z,24.29
2023-04-23T13:29:30.904Z,24.50
2023-04-23T13:31:59.397Z,24.58
2023-04-23T13:34:27.639Z,24.54
2023-04-23T13:36:55.782Z,24.66
2023-04-23T13:39:24.011Z,24.95
2023-04-23T13:42:06.152Z,25.11
2023-04-23T13:44:38.322Z,24.33
2023-04-23T13:47:06.313Z,24.23
2023-04-23T13:49:34.320Z,24.45
2023-04-23T13:52:07.096Z,24.43
2023-04-23T13:54:38.304Z,24.95
2023-04-23T13:57:06.698Z,25.41
2023-04-23T13:59:34.750Z,25.50
2023-04-23T14:02:02.639Z,25.57
2023-04-23T14:04:30.978Z,25.16
2023-04-23T14:06:59.013Z,25.10
2023-04-23T14:09:27.049Z,25.21
2023-04-23T14:11:55.026Z,24.98
2023-04-23T14:14:23.270Z,25.28
2023-04-23T14:16:51.444Z,24.52
2023-04-23T14:19:19.755Z,24.54
2023-04-23T14:21:48.898Z,24.80
2023-04-23T14:24:27.587Z,25.13
2023-04-23T14:26:55.727Z,24.77
2023-04-23T14:29:42.501Z,24.20
2023-04-23T14:32:10.974Z,24.33
2023-04-23T14:34:39.723Z,24.71
2023-04-23T14:37:08.067Z,25.14
2023-04-23T14:39:36.193Z,24.69
2023-04-23T14:42:04.666Z,24.56
2023-04-23T14:44:33.277Z,24.35
2023-04-23T14:47:01.678Z,24.33
2023-04-23T14:49:29.592Z,24.35
2023-04-23T14:51:58.162Z,23.65
2023-04-23T14:54:26.488Z,24.10
2023-04-23T14:56:54.408Z,23.62
2023-04-23T14:59:23.624Z,23.83
2023-04-23T15:01:51.787Z,23.81
2023-04-23T15:04:19.934Z,23.40
2023-04-23T15:06:48.110Z,23.70
2023-04-23T15:09:17.697Z,23.85
2023-04-23T15:11:45.748Z,23.75
2023-04-23T15:14:37.063Z,23.64
2023-04-23T15:17:05.003Z,23.74
2023-04-23T15:19:33.071Z,23.81
2023-04-23T15:22:01.351Z,24.23
2023-04-23T15:24:29.306Z,24.38
2023-04-23T15:26:59.402Z,23.75
2023-04-23T15:29:27.659Z,23.37
2023-04-23T15:31:58.606Z,23.51
2023-04-23T15:34:27.462Z,23.51
2023-04-23T15:36:57.061Z,23.62
2023-04-23T15:39:26.357Z,23.77
2023-04-23T15:41:54.503Z,23.76
2023-04-23T15:44:23.187Z,23.66
2023-04-23T15:46:51.236Z,23.42
2023-04-23T15:49:19.333Z,23.43
2023-04-23T15:51:47.849Z,23.60
2023-04-23T15:54:15.773Z,23.22
2023-04-23T15:56:44.101Z,22.98
2023-04-23T15:59:12.265Z,22.82
2023-04-23T16:01:40.402Z,22.77
2023-04-23T16:04:10.442Z,22.60
2023-04-23T16:06:40.111Z,22.71
2023-04-23T16:09:08.620Z,22.84
2023-04-23T16:11:38.437Z,22.74
2023-04-23T16:14:07.686Z,22.76
2023-04-23T16:16:35.899Z,22.72
2023-04-23T16:19:04.529Z,22.73
2023-04-23T16:21:32.826Z,22.56
2023-04-23T16:24:01.297Z,22.35
2023-04-23T16:26:29.958Z,22.14
2023-04-23T16:31:29.338Z,22.37
2023-04-23T16:33:58.727Z,22.36
2023-04-23T16:36:28.421Z,22.45
2023-04-23T16:38:57.870Z,22.52
2023-04-23T16:41:26.314Z,22.43
2023-04-23T16:43:54.486Z,22.36
2023-04-23T16:46:22.953Z,22.44
2023-04-23T16:48:51.443Z,22.40
2023-04-23T16:51:19.661Z,22.39
2023-04-23T16:53:48.938Z,22.55
2023-04-23T16:56:17.757Z,22.54
2023-04-23T16:58:46.988Z,22.58
2023-04-23T17:01:17.866Z,22.60
2023-04-23T17:03:46.661Z,22.59
2023-04-23T17:06:33.700Z,22.63
2023-04-23T17:09:05.592Z,22.47
2023-04-23T17:11:33.857Z,22.41
2023-04-23T17:14:02.263Z,22.30
2023-04-23T17:16:30.736Z,22.02
2023-04-23T17:18:58.961Z,21.62
2023-04-23T17:21:27.499Z,21.13
2023-04-23T17:23:56.230Z,20.65
2023-04-23T17:26:24.563Z,20.22
2023-04-23T17:28:53.184Z,19.79
2023-04-23T17:31:22.117Z,19.36
2023-04-23T17:33:50.740Z,19.05
2023-04-23T17:36:19.352Z,18.74
2023-04-23T17:38:47.564Z,18.60
2023-04-23T17:41:17.545Z,18.34
2023-04-23T17:43:46.191Z,18.16
2023-04-23T17:46:14.305Z,17.97
2023-04-23T17:48:42.545Z,17.84
2023-04-23T17:51:10.697Z,17.76
2023-04-23T17:53:39.490Z,17.63
2023-04-23T17:56:07.673Z,17.48
2023-04-23T17:58:36.130Z,17.32
2023-04-23T18:01:09.383Z,17.20
2023-04-23T18:03:38.414Z,17.10
2023-04-23T18:06:08.665Z,16.99
2023-04-23T18:08:39.882Z,16.85
2023-04-23T18:11:09.576Z,16.70
2023-04-23T18:13:38.113Z,16.56
2023-04-23T18:16:06.566Z,16.39
2023-04-23T18:18:34.700Z,16.31
2023-04-23T18:21:04.107Z,16.23
2023-04-23T18:23:32.917Z,16.02
2023-04-23T18:26:02.057Z,15.78
2023-04-23T18:28:30.152Z,15.60
2023-04-23T18:31:02.805Z,15.39
2023-04-23T18:33:43.087Z,15.17
2023-04-23T18:36:33.309Z,14.94
2023-04-23T18:39:01.545Z,14.76
2023-04-23T18:41:30.998Z,14.78
2023-04-23T18:44:00.541Z,14.77
2023-04-23T18:46:31.379Z,14.70
2023-04-23T18:49:20.107Z,14.65
2023-04-23T18:51:52.566Z,14.52
2023-04-23T18:54:21.073Z,14.40
2023-04-23T18:56:51.026Z,14.19
2023-04-23T18:59:19.900Z,14.25
2023-04-23T19:01:48.611Z,14.20
2023-04-23T19:04:17.104Z,14.12
2023-04-23T19:06:45.471Z,13.98
2023-04-23T19:09:13.847Z,13.84
2023-04-23T19:11:42.707Z,13.67
2023-04-23T19:14:10.784Z,13.50
2023-04-23T19:16:39.585Z,13.46
2023-04-23T19:19:08.129Z,13.48
2023-04-23T19:21:36.333Z,13.46
2023-04-23T19:24:04.976Z,13.45
2023-04-23T19:26:33.603Z,13.42
2023-04-23T19:29:04.970Z,13.36
2023-04-23T19:31:35.031Z,13.28
2023-04-23T19:34:03.376Z,13.28
2023-04-23T19:36:32.704Z,13.26
2023-04-23T19:39:04.237Z,13.21
2023-04-23T19:41:33.308Z,13.20
2023-04-23T19:44:01.358Z,13.18
2023-04-23T19:46:29.623Z,13.12
2023-04-23T19:48:58.019Z,13.13
2023-04-23T19:51:33.014Z,13.10
2023-04-23T19:54:02.545Z,13.14
2023-04-23T19:56:30.970Z,13.09
2023-04-23T19:58:59.381Z,13.11
2023-04-23T20:01:30.053Z,13.07
2023-04-23T20:03:58.472Z,13.00
2023-04-23T20:06:29.520Z,13.01
2023-04-23T20:09:16.175Z,13.03
2023-04-23T20:11:48.884Z,13.02
2023-04-23T20:14:17.015Z,13.01
2023-04-23T20:16:45.543Z,12.96
2023-04-23T20:19:15.039Z,12.82
2023-04-23T20:21:43.149Z,12.76
2023-04-23T20:24:12.740Z,12.64
2023-04-23T20:26:42.300Z,12.57
2023-04-23T20:29:10.689Z,12.56
2023-04-23T20:31:38.830Z,12.51
2023-04-23T20:34:07.276Z,12.55
2023-04-23T20:36:38.774Z,12.52
2023-04-23T20:39:08.532Z,12.44
2023-04-23T20:41:37.082Z,12.36
2023-04-23T20:44:05.424Z,12.22
2023-04-23T20:46:33.855Z,12.15
2023-04-23T20:49:03.508Z,12.10
2023-04-23T20:51:35.140Z,11.99
2023-04-23T20:54:03.322Z,11.82
2023-04-23T20:56:31.705Z,11.63
2023-04-23T20:59:00.311Z,11.53
2023-04-23T21:01:28.908Z,11.39
2023-04-23T21:04:01.156Z,11.35
2023-04-23T21:06:31.386Z,11.37
2023-04-23T21:08:59.782Z,11.33
2023-04-23T21:11:28.437Z,11.21
2023-04-23T21:13:57.312Z,11.14
2023-04-23T21:16:27.441Z,11.06
2023-04-23T21:18:56.086Z,11.08
2023-04-23T21:21:28.110Z,11.02
2023-04-23T21:23:57.189Z,11.05
2023-04-23T21:26:25.552Z,11.04
2023-04-23T21:28:53.599Z,11.08
2023-04-23T21:31:52.332Z,11.06
2023-04-23T21:34:21.732Z,11.05
2023-04-23T21:36:50.164Z,10.99
2023-04-23T21:39:18.280Z,10.97
2023-04-23T21:41:48.083Z,10.86
2023-04-23T21:44:17.136Z,10.83
2023-04-23T21:46:45.999Z,10.81
2023-04-23T21:49:14.364Z,10.85
2023-04-23T21:51:42.536Z,10.87
2023-04-23T21:54:10.920Z,10.82
2023-04-23T21:56:38.976Z,10.82
2023-04-23T21:59:07.055Z,10.78
2023-04-23T22:01:36.842Z,10.77
2023-04-23T22:04:05.202Z,10.75
2023-04-23T22:06:34.468Z,10.66
2023-04-23T22:09:03.128Z,10.61
2023-04-23T22:11:31.612Z,10.52
2023-04-23T22:14:00.270Z,10.45
2023-04-23T22:16:29.348Z,10.37
2023-04-23T22:18:57.947Z,10.33
2023-04-23T22:21:26.144Z,10.26
2023-04-23T22:23:54.282Z,10.25
2023-04-23T22:26:22.250Z,10.20
2023-04-23T22:28:50.468Z,10.13
2023-04-23T22:31:18.777Z,10.12
2023-04-23T22:33:46.855Z,10.05
2023-04-23T22:36:16.961Z,10.06
2023-04-23T22:38:45.141Z,10.11
2023-04-23T22:41:12.996Z,10.12
2023-04-23T22:43:41.140Z,10.14
2023-04-23T22:46:09.249Z,10.12
2023-04-23T22:48:37.870Z,10.07
2023-04-23T22:51:07.023Z,10.10
2023-04-23T22:53:35.289Z,10.06
2023-04-23T22:56:03.253Z,9.99
2023-04-23T22:58:31.526Z,9.94
2023-04-23T23:00:59.679Z,9.94
2023-04-23T23:03:27.726Z,9.95
2023-04-23T23:05:56.154Z,9.98
2023-04-23T23:08:25.378Z,10.06
2023-04-23T23:10:53.392Z,10.11
2023-04-23T23:13:21.576Z,10.16
2023-04-23T23:15:49.816Z,10.22
2023-04-23T23:18:17.759Z,10.21
2023-04-23T23:20:45.924Z,10.18
2023-04-23T23:23:14.008Z,10.17
2023-04-23T23:25:41.929Z,10.15
2023-04-23T23:28:09.866Z,10.10
2023-04-23T23:30:38.137Z,10.07
2023-04-23T23:33:06.220Z,9.99
2023-04-23T23:35:35.204Z,9.94
2023-04-23T23:38:03.965Z,9.86
2023-04-23T23:40:32.086Z,9.87
2023-04-23T23:42:59.975Z,9.77
2023-04-23T23:45:29.142Z,9.74
2023-04-23T23:47:57.078Z,9.72
2023-04-23T23:50:26.258Z,9.73
2023-04-23T23:52:55.849Z,9.75
2023-04-23T23:55:23.682Z,9.76
2023-04-23T23:57:51.600Z,9.75
